sensor_id;sensor_type;location;lat;lon;timestamp;P1;durP1;ratioP1;P2;durP2;ratioP2
64966;SDS011;51710;38.732;-121.358;2023-03-12T00:01:38;2.60;;;0.80;;
64966;SDS011;51710;38.732;-121.358;2023-03-12T00:04:05;0.70;;;0.50;;
64966;SDS011;51710;38.732;-121.358;2023-03-12T00:06:31;1.58;;;0.70;;
64966;SDS011;51710;38.732;-121.358;2023-03-12T00:08:57;2.28;;;0.70;;
64966;SDS011;51710;38.732;-121.358;2023-03-12T00:11:26;1.05;;;0.70;;
64966;SDS011;51710;38.732;-121.358;2023-03-12T00:13:54;2.38;;;0.80;;
64966;SDS011;51710;38.732;-121.358;2023-03-12T00:16:22;1.75;;;0.77;;
64966;SDS011;51710;38.732;-121.358;2023-03-12T00:18:49;2.17;;;0.90;;
64966;SDS011;51710;38.732;-121.358;2023-03-12T00:21:18;1.95;;;0.75;;
64966;SDS011;51710;38.732;-121.358;2023-03-12T00:23:46;1.27;;;1.00;;
64966;SDS011;51710;38.732;-121.358;2023-03-12T00:26:14;2.00;;;0.90;;
64966;SDS011;51710;38.732;-121.358;2023-03-12T00:28:41;6.03;;;0.90;;
64966;SDS011;51710;38.732;-121.358;2023-03-12T00:31:14;1.50;;;0.70;;
64966;SDS011;51710;38.732;-121.358;2023-03-12T00:33:44;0.80;;;0.60;;
64966;SDS011;51710;38.732;-121.358;2023-03-12T00:36:11;1.50;;;0.70;;
64966;SDS011;51710;38.732;-121.358;2023-03-12T00:38:37;3.13;;;1.13;;
64966;SDS011;51710;38.732;-121.358;2023-03-12T00:41:03;2.13;;;1.10;;
64966;SDS011;51710;38.732;-121.358;2023-03-12T00:43:30;1.10;;;0.65;;
64966;SDS011;51710;38.732;-121.358;2023-03-12T00:45:56;3.40;;;0.73;;
64966;SDS011;51710;38.732;-121.358;2023-03-12T00:48:22;0.95;;;0.70;;
64966;SDS011;51710;38.732;-121.358;2023-03-12T00:50:49;1.17;;;0.73;;
64966;SDS011;51710;38.732;-121.358;2023-03-12T00:53:16;2.00;;;1.25;;
64966;SDS011;51710;38.732;-121.358;2023-03-12T00:55:42;1.52;;;0.80;;
64966;SDS011;51710;38.732;-121.358;2023-03-12T00:58:08;1.02;;;0.75;;
64966;SDS011;51710;38.732;-121.358;2023-03-12T01:00:34;1.58;;;0.70;;
64966;SDS011;51710;38.732;-121.358;2023-03-12T01:03:01;1.85;;;0.80;;
64966;SDS011;51710;38.732;-121.358;2023-03-12T01:05:27;2.10;;;0.80;;
64966;SDS011;51710;38.732;-121.358;2023-03-12T01:07:53;2.97;;;0.80;;
64966;SDS011;51710;38.732;-121.358;2023-03-12T01:10:21;0.95;;;0.60;;
64966;SDS011;51710;38.732;-121.358;2023-03-12T01:12:48;1.23;;;0.68;;
64966;SDS011;51710;38.732;-121.358;2023-03-12T01:15:15;1.70;;;0.80;;
64966;SDS011;51710;38.732;-121.358;2023-03-12T01:17:42;1.65;;;0.60;;
64966;SDS011;51710;38.732;-121.358;2023-03-12T01:20:09;3.17;;;1.20;;
64966;SDS011;51710;38.732;-121.358;2023-03-12T01:22:35;1.48;;;0.77;;
64966;SDS011;51710;38.732;-121.358;2023-03-12T01:25:02;2.33;;;0.70;;
64966;SDS011;51710;38.732;-121.358;2023-03-12T01:27:29;1.15;;;0.93;;
64966;SDS011;51710;38.732;-121.358;2023-03-12T01:29:55;3.83;;;1.50;;
64966;SDS011;51710;38.732;-121.358;2023-03-12T01:32:21;3.45;;;1.90;;
64966;SDS011;51710;38.732;-121.358;2023-03-12T01:34:48;2.30;;;0.80;;
64966;SDS011;51710;38.732;-121.358;2023-03-12T01:37:14;1.08;;;0.77;;
64966;SDS011;51710;38.732;-121.358;2023-03-12T01:39:41;1.58;;;0.70;;
64966;SDS011;51710;38.732;-121.358;2023-03-12T01:42:07;7.97;;;3.97;;
64966;SDS011;51710;38.732;-121.358;2023-03-12T01:44:53;6.90;;;3.65;;
64966;SDS011;51710;38.732;-121.358;2023-03-12T01:47:22;6.65;;;3.53;;
64966;SDS011;51710;38.732;-121.358;2023-03-12T01:49:49;6.47;;;3.03;;
64966;SDS011;51710;38.732;-121.358;2023-03-12T01:52:26;2.75;;;1.55;;
64966;SDS011;51710;38.732;-121.358;2023-03-12T01:55:09;3.85;;;1.10;;
64966;SDS011;51710;38.732;-121.358;2023-03-12T01:57:43;3.08;;;1.00;;
64966;SDS011;51710;38.732;-121.358;2023-03-12T02:00:14;1.75;;;0.90;;
64966;SDS011;51710;38.732;-121.358;2023-03-12T02:02:46;9.43;;;3.92;;
64966;SDS011;51710;38.732;-121.358;2023-03-12T02:05:16;4.32;;;2.30;;
64966;SDS011;51710;38.732;-121.358;2023-03-12T02:07:54;4.70;;;2.70;;
64966;SDS011;51710;38.732;-121.358;2023-03-12T02:10:21;5.60;;;1.98;;
64966;SDS011;51710;38.732;-121.358;2023-03-12T02:12:49;4.60;;;2.38;;
64966;SDS011;51710;38.732;-121.358;2023-03-12T02:15:16;7.78;;;3.50;;
64966;SDS011;51710;38.732;-121.358;2023-03-12T02:17:42;5.18;;;2.33;;
64966;SDS011;51710;38.732;-121.358;2023-03-12T02:20:16;5.60;;;2.88;;
64966;SDS011;51710;38.732;-121.358;2023-03-12T02:23:03;10.15;;;5.30;;
64966;SDS011;51710;38.732;-121.358;2023-03-12T02:25:36;11.75;;;5.30;;
64966;SDS011;51710;38.732;-121.358;2023-03-12T02:28:09;9.57;;;5.43;;
64966;SDS011;51710;38.732;-121.358;2023-03-12T02:30:41;9.23;;;4.97;;
64966;SDS011;51710;38.732;-121.358;2023-03-12T02:33:10;7.38;;;3.50;;
64966;SDS011;51710;38.732;-121.358;2023-03-12T02:35:40;12.95;;;6.20;;
64966;SDS011;51710;38.732;-121.358;2023-03-12T02:44:12;19.05;;;11.07;;
64966;SDS011;51710;38.732;-121.358;2023-03-12T02:46:44;9.48;;;6.18;;
64966;SDS011;51710;38.732;-121.358;2023-03-12T02:49:18;10.55;;;6.53;;
64966;SDS011;51710;38.732;-121.358;2023-03-12T02:51:46;14.38;;;9.07;;
64966;SDS011;51710;38.732;-121.358;2023-03-12T02:54:14;11.20;;;7.55;;
64966;SDS011;51710;38.732;-121.358;2023-03-12T02:56:42;14.15;;;8.73;;
64966;SDS011;51710;38.732;-121.358;2023-03-12T02:59:09;13.75;;;9.10;;
64966;SDS011;51710;38.732;-121.358;2023-03-12T03:01:37;7.60;;;4.35;;
64966;SDS011;51710;38.732;-121.358;2023-03-12T03:04:04;7.18;;;3.72;;
64966;SDS011;51710;38.732;-121.358;2023-03-12T03:06:32;11.70;;;6.03;;
64966;SDS011;51710;38.732;-121.358;2023-03-12T03:09:00;9.40;;;5.57;;
64966;SDS011;51710;38.732;-121.358;2023-03-12T03:11:27;8.93;;;5.30;;
64966;SDS011;51710;38.732;-121.358;2023-03-12T03:13:53;6.55;;;4.40;;
64966;SDS011;51710;38.732;-121.358;2023-03-12T03:16:20;5.80;;;3.95;;
64966;SDS011;51710;38.732;-121.358;2023-03-12T03:18:47;7.45;;;4.10;;
64966;SDS011;51710;38.732;-121.358;2023-03-12T03:21:14;6.70;;;3.00;;
64966;SDS011;51710;38.732;-121.358;2023-03-12T03:23:42;7.45;;;3.25;;
64966;SDS011;51710;38.732;-121.358;2023-03-12T03:26:09;5.63;;;3.58;;
64966;SDS011;51710;38.732;-121.358;2023-03-12T03:28:36;5.35;;;3.55;;
64966;SDS011;51710;38.732;-121.358;2023-03-12T03:31:02;6.65;;;4.63;;
64966;SDS011;51710;38.732;-121.358;2023-03-12T03:33:30;10.00;;;5.63;;
64966;SDS011;51710;38.732;-121.358;2023-03-12T03:35:58;10.65;;;5.88;;
64966;SDS011;51710;38.732;-121.358;2023-03-12T03:38:26;7.63;;;4.85;;
64966;SDS011;51710;38.732;-121.358;2023-03-12T03:40:53;8.20;;;4.95;;
64966;SDS011;51710;38.732;-121.358;2023-03-12T03:43:20;7.47;;;4.70;;
64966;SDS011;51710;38.732;-121.358;2023-03-12T03:45:47;5.53;;;3.97;;
64966;SDS011;51710;38.732;-121.358;2023-03-12T03:48:20;6.78;;;4.32;;
64966;SDS011;51710;38.732;-121.358;2023-03-12T03:50:47;6.97;;;5.05;;
64966;SDS011;51710;38.732;-121.358;2023-03-12T03:53:13;6.38;;;5.00;;
64966;SDS011;51710;38.732;-121.358;2023-03-12T03:55:39;7.93;;;5.30;;
64966;SDS011;51710;38.732;-121.358;2023-03-12T03:58:06;7.57;;;5.45;;
64966;SDS011;51710;38.732;-121.358;2023-03-12T04:00:32;7.65;;;5.88;;
64966;SDS011;51710;38.732;-121.358;2023-03-12T04:02:59;8.60;;;6.03;;
64966;SDS011;51710;38.732;-121.358;2023-03-12T04:05:25;10.20;;;6.72;;
64966;SDS011;51710;38.732;-121.358;2023-03-12T04:07:52;8.20;;;6.18;;
64966;SDS011;51710;38.732;-121.358;2023-03-12T04:10:20;10.63;;;7.45;;
64966;SDS011;51710;38.732;-121.358;2023-03-12T04:12:47;9.68;;;7.07;;
64966;SDS011;51710;38.732;-121.358;2023-03-12T04:15:13;8.75;;;6.38;;
64966;SDS011;51710;38.732;-121.358;2023-03-12T04:17:40;10.52;;;6.85;;
64966;SDS011;51710;38.732;-121.358;2023-03-12T04:20:06;9.45;;;6.38;;
64966;SDS011;51710;38.732;-121.358;2023-03-12T04:22:35;11.32;;;6.95;;
64966;SDS011;51710;38.732;-121.358;2023-03-12T04:25:01;10.68;;;7.25;;
64966;SDS011;51710;38.732;-121.358;2023-03-12T04:27:29;8.73;;;6.80;;
64966;SDS011;51710;38.732;-121.358;2023-03-12T04:29:55;10.27;;;7.32;;
64966;SDS011;51710;38.732;-121.358;2023-03-12T04:32:21;10.50;;;6.63;;
64966;SDS011;51710;38.732;-121.358;2023-03-12T04:34:47;9.63;;;6.90;;
64966;SDS011;51710;38.732;-121.358;2023-03-12T04:37:14;9.27;;;6.82;;
64966;SDS011;51710;38.732;-121.358;2023-03-12T04:39:40;8.30;;;5.88;;
64966;SDS011;51710;38.732;-121.358;2023-03-12T04:42:08;9.25;;;6.32;;
64966;SDS011;51710;38.732;-121.358;2023-03-12T04:44:35;10.80;;;6.60;;
64966;SDS011;51710;38.732;-121.358;2023-03-12T04:47:02;10.52;;;6.80;;
64966;SDS011;51710;38.732;-121.358;2023-03-12T04:49:29;9.65;;;6.72;;
64966;SDS011;51710;38.732;-121.358;2023-03-12T04:51:55;8.73;;;6.40;;
64966;SDS011;51710;38.732;-121.358;2023-03-12T04:54:22;8.38;;;5.80;;
64966;SDS011;51710;38.732;-121.358;2023-03-12T04:56:48;7.50;;;5.90;;
64966;SDS011;51710;38.732;-121.358;2023-03-12T04:59:15;8.27;;;6.63;;
64966;SDS011;51710;38.732;-121.358;2023-03-12T05:01:42;8.02;;;6.30;;
64966;SDS011;51710;38.732;-121.358;2023-03-12T05:04:08;9.65;;;7.57;;
64966;SDS011;51710;38.732;-121.358;2023-03-12T05:06:34;9.10;;;6.88;;
64966;SDS011;51710;38.732;-121.358;2023-03-12T05:09:01;9.57;;;6.88;;
64966;SDS011;51710;38.732;-121.358;2023-03-12T05:11:28;9.60;;;6.80;;
64966;SDS011;51710;38.732;-121.358;2023-03-12T05:13:54;11.50;;;6.85;;
64966;SDS011;51710;38.732;-121.358;2023-03-12T05:16:20;8.25;;;6.13;;
64966;SDS011;51710;38.732;-121.358;2023-03-12T05:18:47;9.05;;;6.63;;
64966;SDS011;51710;38.732;-121.358;2023-03-12T05:21:14;11.23;;;7.63;;
64966;SDS011;51710;38.732;-121.358;2023-03-12T05:23:42;8.70;;;6.72;;
64966;SDS011;51710;38.732;-121.358;2023-03-12T05:26:16;11.13;;;7.35;;
64966;SDS011;51710;38.732;-121.358;2023-03-12T05:28:44;10.15;;;7.43;;
64966;SDS011;51710;38.732;-121.358;2023-03-12T05:31:14;13.35;;;7.45;;
64966;SDS011;51710;38.732;-121.358;2023-03-12T05:33:41;10.07;;;6.57;;
64966;SDS011;51710;38.732;-121.358;2023-03-12T05:36:08;8.30;;;5.70;;
64966;SDS011;51710;38.732;-121.358;2023-03-12T05:38:35;8.25;;;6.35;;
64966;SDS011;51710;38.732;-121.358;2023-03-12T05:41:02;7.28;;;5.70;;
64966;SDS011;51710;38.732;-121.358;2023-03-12T05:43:28;9.85;;;6.03;;
64966;SDS011;51710;38.732;-121.358;2023-03-12T05:45:59;8.75;;;6.05;;
64966;SDS011;51710;38.732;-121.358;2023-03-12T05:48:26;7.60;;;5.65;;
64966;SDS011;51710;38.732;-121.358;2023-03-12T05:50:53;8.77;;;5.70;;
64966;SDS011;51710;38.732;-121.358;2023-03-12T05:53:19;8.50;;;5.75;;
64966;SDS011;51710;38.732;-121.358;2023-03-12T05:55:45;8.32;;;5.15;;
64966;SDS011;51710;38.732;-121.358;2023-03-12T05:58:12;6.82;;;5.40;;
64966;SDS011;51710;38.732;-121.358;2023-03-12T06:00:39;8.60;;;5.50;;
64966;SDS011;51710;38.732;-121.358;2023-03-12T06:03:06;6.78;;;4.97;;
64966;SDS011;51710;38.732;-121.358;2023-03-12T06:05:34;6.88;;;5.00;;
64966;SDS011;51710;38.732;-121.358;2023-03-12T06:08:02;9.10;;;5.35;;
64966;SDS011;51710;38.732;-121.358;2023-03-12T06:10:29;7.90;;;4.55;;
64966;SDS011;51710;38.732;-121.358;2023-03-12T06:12:56;7.13;;;4.60;;
64966;SDS011;51710;38.732;-121.358;2023-03-12T06:15:23;7.47;;;4.50;;
64966;SDS011;51710;38.732;-121.358;2023-03-12T06:17:50;7.60;;;4.40;;
64966;SDS011;51710;38.732;-121.358;2023-03-12T06:20:16;6.50;;;4.22;;
64966;SDS011;51710;38.732;-121.358;2023-03-12T06:22:43;5.28;;;3.97;;
64966;SDS011;51710;38.732;-121.358;2023-03-12T06:25:09;5.18;;;3.90;;
64966;SDS011;51710;38.732;-121.358;2023-03-12T06:27:35;5.57;;;3.65;;
64966;SDS011;51710;38.732;-121.358;2023-03-12T06:30:02;6.60;;;3.50;;
64966;SDS011;51710;38.732;-121.358;2023-03-12T06:32:29;4.88;;;3.38;;
64966;SDS011;51710;38.732;-121.358;2023-03-12T06:34:55;6.45;;;3.42;;
64966;SDS011;51710;38.732;-121.358;2023-03-12T06:37:23;6.75;;;3.30;;
64966;SDS011;51710;38.732;-121.358;2023-03-12T06:39:49;5.18;;;2.80;;
64966;SDS011;51710;38.732;-121.358;2023-03-12T06:42:16;6.43;;;3.28;;
64966;SDS011;51710;38.732;-121.358;2023-03-12T06:44:45;7.38;;;2.83;;
64966;SDS011;51710;38.732;-121.358;2023-03-12T06:47:11;4.57;;;2.50;;
64966;SDS011;51710;38.732;-121.358;2023-03-12T06:49:37;4.22;;;2.47;;
64966;SDS011;51710;38.732;-121.358;2023-03-12T06:52:04;4.95;;;2.40;;
64966;SDS011;51710;38.732;-121.358;2023-03-12T06:54:30;3.85;;;2.15;;
64966;SDS011;51710;38.732;-121.358;2023-03-12T06:56:57;3.75;;;2.58;;
64966;SDS011;51710;38.732;-121.358;2023-03-12T06:59:26;6.05;;;2.78;;
64966;SDS011;51710;38.732;-121.358;2023-03-12T07:01:52;3.85;;;2.53;;
64966;SDS011;51710;38.732;-121.358;2023-03-12T07:04:19;5.10;;;2.38;;
64966;SDS011;51710;38.732;-121.358;2023-03-12T07:06:45;4.60;;;2.92;;
64966;SDS011;51710;38.732;-121.358;2023-03-12T07:09:18;4.30;;;2.65;;
64966;SDS011;51710;38.732;-121.358;2023-03-12T07:11:45;4.63;;;2.63;;
64966;SDS011;51710;38.732;-121.358;2023-03-12T07:14:11;4.75;;;2.53;;
64966;SDS011;51710;38.732;-121.358;2023-03-12T07:16:37;5.05;;;2.80;;
64966;SDS011;51710;38.732;-121.358;2023-03-12T07:19:04;4.53;;;2.80;;
64966;SDS011;51710;38.732;-121.358;2023-03-12T07:21:30;4.13;;;2.50;;
64966;SDS011;51710;38.732;-121.358;2023-03-12T07:23:56;4.50;;;2.33;;
64966;SDS011;51710;38.732;-121.358;2023-03-12T07:26:23;4.20;;;2.25;;
64966;SDS011;51710;38.732;-121.358;2023-03-12T07:28:49;4.95;;;2.60;;
64966;SDS011;51710;38.732;-121.358;2023-03-12T07:31:15;4.95;;;2.47;;
64966;SDS011;51710;38.732;-121.358;2023-03-12T07:33:41;5.60;;;2.50;;
64966;SDS011;51710;38.732;-121.358;2023-03-12T07:36:11;4.85;;;2.35;;
64966;SDS011;51710;38.732;-121.358;2023-03-12T07:38:37;4.70;;;2.15;;
64966;SDS011;51710;38.732;-121.358;2023-03-12T07:41:03;4.22;;;2.10;;
64966;SDS011;51710;38.732;-121.358;2023-03-12T07:43:30;3.45;;;2.15;;
64966;SDS011;51710;38.732;-121.358;2023-03-12T07:45:56;5.57;;;2.38;;
64966;SDS011;51710;38.732;-121.358;2023-03-12T07:48:22;3.92;;;2.42;;
64966;SDS011;51710;38.732;-121.358;2023-03-12T07:50:49;4.35;;;2.25;;
64966;SDS011;51710;38.732;-121.358;2023-03-12T07:53:15;3.63;;;2.25;;
64966;SDS011;51710;38.732;-121.358;2023-03-12T07:55:42;3.75;;;2.47;;
64966;SDS011;51710;38.732;-121.358;2023-03-12T07:58:10;5.15;;;2.60;;
64966;SDS011;51710;38.732;-121.358;2023-03-12T08:00:37;4.72;;;2.70;;
64966;SDS011;51710;38.732;-121.358;2023-03-12T08:03:03;6.63;;;2.53;;
64966;SDS011;51710;38.732;-121.358;2023-03-12T08:05:30;4.90;;;2.08;;
64966;SDS011;51710;38.732;-121.358;2023-03-12T08:07:56;5.13;;;2.70;;
64966;SDS011;51710;38.732;-121.358;2023-03-12T08:10:22;4.28;;;2.65;;
64966;SDS011;51710;38.732;-121.358;2023-03-12T08:12:49;5.93;;;3.03;;
64966;SDS011;51710;38.732;-121.358;2023-03-12T08:15:15;3.97;;;2.92;;
64966;SDS011;51710;38.732;-121.358;2023-03-12T08:17:41;5.18;;;2.92;;
64966;SDS011;51710;38.732;-121.358;2023-03-12T08:20:08;4.25;;;2.72;;
64966;SDS011;51710;38.732;-121.358;2023-03-12T08:22:36;4.95;;;3.13;;
64966;SDS011;51710;38.732;-121.358;2023-03-12T08:25:04;4.60;;;2.67;;
64966;SDS011;51710;38.732;-121.358;2023-03-12T08:27:31;2.95;;;2.00;;
64966;SDS011;51710;38.732;-121.358;2023-03-12T08:29:58;4.30;;;2.55;;
64966;SDS011;51710;38.732;-121.358;2023-03-12T08:32:24;5.40;;;2.42;;
64966;SDS011;51710;38.732;-121.358;2023-03-12T08:34:50;4.63;;;2.22;;
64966;SDS011;51710;38.732;-121.358;2023-03-12T08:37:17;4.97;;;2.60;;
64966;SDS011;51710;38.732;-121.358;2023-03-12T08:39:43;4.15;;;2.17;;
64966;SDS011;51710;38.732;-121.358;2023-03-12T08:42:09;3.20;;;2.38;;
64966;SDS011;51710;38.732;-121.358;2023-03-12T08:44:36;4.90;;;2.20;;
64966;SDS011;51710;38.732;-121.358;2023-03-12T08:47:02;2.90;;;2.03;;
64966;SDS011;51710;38.732;-121.358;2023-03-12T08:49:28;4.07;;;2.30;;
64966;SDS011;51710;38.732;-121.358;2023-03-12T08:51:55;6.25;;;2.28;;
64966;SDS011;51710;38.732;-121.358;2023-03-12T08:54:21;3.17;;;1.95;;
64966;SDS011;51710;38.732;-121.358;2023-03-12T08:56:50;5.65;;;1.90;;
64966;SDS011;51710;38.732;-121.358;2023-03-12T08:59:18;3.33;;;1.77;;
64966;SDS011;51710;38.732;-121.358;2023-03-12T09:01:46;3.30;;;2.03;;
64966;SDS011;51710;38.732;-121.358;2023-03-12T09:04:13;3.75;;;1.60;;
64966;SDS011;51710;38.732;-121.358;2023-03-12T09:06:39;4.00;;;1.70;;
64966;SDS011;51710;38.732;-121.358;2023-03-12T09:09:05;4.05;;;1.80;;
64966;SDS011;51710;38.732;-121.358;2023-03-12T09:11:33;2.35;;;1.70;;
64966;SDS011;51710;38.732;-121.358;2023-03-12T09:14:01;5.18;;;1.95;;
64966;SDS011;51710;38.732;-121.358;2023-03-12T09:16:31;7.85;;;2.10;;
64966;SDS011;51710;38.732;-121.358;2023-03-12T09:18:57;3.78;;;1.83;;
64966;SDS011;51710;38.732;-121.358;2023-03-12T09:21:23;2.67;;;1.67;;
64966;SDS011;51710;38.732;-121.358;2023-03-12T09:23:50;3.97;;;1.70;;
64966;SDS011;51710;38.732;-121.358;2023-03-12T09:26:16;6.47;;;1.75;;
64966;SDS011;51710;38.732;-121.358;2023-03-12T09:28:42;2.55;;;1.50;;
64966;SDS011;51710;38.732;-121.358;2023-03-12T09:31:09;2.50;;;1.20;;
64966;SDS011;51710;38.732;-121.358;2023-03-12T09:33:36;1.67;;;1.20;;
64966;SDS011;51710;38.732;-121.358;2023-03-12T09:36:03;2.90;;;1.38;;
64966;SDS011;51710;38.732;-121.358;2023-03-12T09:38:29;4.00;;;1.52;;
64966;SDS011;51710;38.732;-121.358;2023-03-12T09:40:56;2.40;;;1.63;;
64966;SDS011;51710;38.732;-121.358;2023-03-12T09:45:56;5.13;;;1.48;;
64966;SDS011;51710;38.732;-121.358;2023-03-12T09:48:27;3.88;;;1.73;;
64966;SDS011;51710;38.732;-121.358;2023-03-12T09:51:01;3.58;;;1.98;;
64966;SDS011;51710;38.732;-121.358;2023-03-12T09:53:56;2.35;;;1.77;;
64966;SDS011;51710;38.732;-121.358;2023-03-12T09:56:25;3.80;;;1.50;;
64966;SDS011;51710;38.732;-121.358;2023-03-12T09:58:52;2.97;;;1.65;;
64966;SDS011;51710;38.732;-121.358;2023-03-12T10:06:34;2.30;;;1.65;;
64966;SDS011;51710;38.732;-121.358;2023-03-12T10:12:37;2.85;;;1.67;;
64966;SDS011;51710;38.732;-121.358;2023-03-12T10:27:08;2.75;;;1.70;;
64966;SDS011;51710;38.732;-121.358;2023-03-12T10:29:39;3.00;;;1.77;;
64966;SDS011;51710;38.732;-121.358;2023-03-12T10:32:25;2.10;;;1.40;;
64966;SDS011;51710;38.732;-121.358;2023-03-12T10:34:59;4.05;;;2.05;;
64966;SDS011;51710;38.732;-121.358;2023-03-12T10:40:18;3.58;;;1.50;;
64966;SDS011;51710;38.732;-121.358;2023-03-12T10:42:47;2.78;;;1.60;;
64966;SDS011;51710;38.732;-121.358;2023-03-12T10:45:20;3.17;;;1.50;;
64966;SDS011;51710;38.732;-121.358;2023-03-12T10:48:07;2.78;;;1.40;;
64966;SDS011;51710;38.732;-121.358;2023-03-12T10:50:36;2.22;;;1.25;;
64966;SDS011;51710;38.732;-121.358;2023-03-12T10:53:38;2.22;;;1.20;;
64966;SDS011;51710;38.732;-121.358;2023-03-12T10:58:40;3.40;;;1.45;;
64966;SDS011;51710;38.732;-121.358;2023-03-12T11:01:15;2.92;;;1.45;;
64966;SDS011;51710;38.732;-121.358;2023-03-12T11:03:48;2.40;;;1.25;;
64966;SDS011;51710;38.732;-121.358;2023-03-12T11:06:26;2.33;;;1.40;;
64966;SDS011;51710;38.732;-121.358;2023-03-12T11:09:14;2.40;;;1.35;;
64966;SDS011;51710;38.732;-121.358;2023-03-12T11:11:43;3.17;;;1.30;;
64966;SDS011;51710;38.732;-121.358;2023-03-12T11:14:19;3.20;;;1.50;;
64966;SDS011;51710;38.732;-121.358;2023-03-12T11:16:47;3.10;;;1.50;;
64966;SDS011;51710;38.732;-121.358;2023-03-12T11:19:28;2.40;;;1.38;;
64966;SDS011;51710;38.732;-121.358;2023-03-12T11:22:03;2.65;;;1.30;;
64966;SDS011;51710;38.732;-121.358;2023-03-12T11:24:32;4.20;;;1.70;;
64966;SDS011;51710;38.732;-121.358;2023-03-12T11:29:31;3.53;;;2.17;;
64966;SDS011;51710;38.732;-121.358;2023-03-12T11:34:57;3.10;;;1.20;;
64966;SDS011;51710;38.732;-121.358;2023-03-12T11:37:35;3.45;;;1.38;;
64966;SDS011;51710;38.732;-121.358;2023-03-12T11:56:35;3.72;;;0.95;;
64966;SDS011;51710;38.732;-121.358;2023-03-12T12:08:22;4.20;;;1.00;;
64966;SDS011;51710;38.732;-121.358;2023-03-12T12:14:01;4.43;;;0.80;;
64966;SDS011;51710;38.732;-121.358;2023-03-12T12:28:23;1.92;;;0.90;;
64966;SDS011;51710;38.732;-121.358;2023-03-12T12:37:10;2.97;;;0.80;;
64966;SDS011;51710;38.732;-121.358;2023-03-12T12:39:44;1.95;;;0.80;;
64966;SDS011;51710;38.732;-121.358;2023-03-12T12:42:20;2.47;;;0.90;;
64966;SDS011;51710;38.732;-121.358;2023-03-12T12:44:51;1.83;;;0.88;;
64966;SDS011;51710;38.732;-121.358;2023-03-12T12:47:30;1.85;;;0.80;;
64966;SDS011;51710;38.732;-121.358;2023-03-12T12:50:05;3.92;;;1.10;;
64966;SDS011;51710;38.732;-121.358;2023-03-12T12:52:39;1.98;;;0.90;;
64966;SDS011;51710;38.732;-121.358;2023-03-12T12:55:11;1.85;;;0.80;;
64966;SDS011;51710;38.732;-121.358;2023-03-12T13:00:44;2.80;;;1.30;;
64966;SDS011;51710;38.732;-121.358;2023-03-12T13:03:23;6.43;;;1.23;;
64966;SDS011;51710;38.732;-121.358;2023-03-12T13:13:42;2.05;;;1.55;;
64966;SDS011;51710;38.732;-121.358;2023-03-12T13:18:56;3.20;;;1.08;;
64966;SDS011;51710;38.732;-121.358;2023-03-12T13:21:25;2.15;;;1.10;;
64966;SDS011;51710;38.732;-121.358;2023-03-12T13:24:15;2.67;;;0.98;;
64966;SDS011;51710;38.732;-121.358;2023-03-12T13:29:40;3.70;;;1.30;;
64966;SDS011;51710;38.732;-121.358;2023-03-12T13:43:04;1.92;;;1.20;;
64966;SDS011;51710;38.732;-121.358;2023-03-12T13:48:20;3.05;;;2.05;;
64966;SDS011;51710;38.732;-121.358;2023-03-12T13:50:53;1.52;;;1.13;;
64966;SDS011;51710;38.732;-121.358;2023-03-12T13:53:41;4.27;;;1.37;;
64966;SDS011;51710;38.732;-121.358;2023-03-12T13:56:15;3.00;;;1.35;;
64966;SDS011;51710;38.732;-121.358;2023-03-12T13:58:54;3.42;;;1.40;;
64966;SDS011;51710;38.732;-121.358;2023-03-12T14:01:30;3.38;;;1.30;;
64966;SDS011;51710;38.732;-121.358;2023-03-12T14:04:03;2.08;;;1.20;;
64966;SDS011;51710;38.732;-121.358;2023-03-12T14:06:44;2.35;;;1.25;;
64966;SDS011;51710;38.732;-121.358;2023-03-12T14:14:30;5.82;;;1.58;;
64966;SDS011;51710;38.732;-121.358;2023-03-12T14:17:22;2.80;;;1.15;;
64966;SDS011;51710;38.732;-121.358;2023-03-12T14:19:55;2.42;;;0.90;;
64966;SDS011;51710;38.732;-121.358;2023-03-12T14:22:31;2.30;;;1.10;;
64966;SDS011;51710;38.732;-121.358;2023-03-12T14:25:10;2.92;;;0.90;;
64966;SDS011;51710;38.732;-121.358;2023-03-12T14:27:39;1.88;;;0.80;;
64966;SDS011;51710;38.732;-121.358;2023-03-12T14:30:18;2.60;;;0.90;;
64966;SDS011;51710;38.732;-121.358;2023-03-12T14:32:52;2.65;;;1.35;;
64966;SDS011;51710;38.732;-121.358;2023-03-12T14:35:23;4.47;;;0.88;;
64966;SDS011;51710;38.732;-121.358;2023-03-12T14:43:25;1.53;;;0.90;;
64966;SDS011;51710;38.732;-121.358;2023-03-12T14:46:04;1.83;;;0.80;;
64966;SDS011;51710;38.732;-121.358;2023-03-12T14:48:38;2.80;;;0.73;;
64966;SDS011;51710;38.732;-121.358;2023-03-12T14:51:05;2.28;;;0.60;;
64966;SDS011;51710;38.732;-121.358;2023-03-12T14:53:36;3.13;;;0.80;;
64966;SDS011;51710;38.732;-121.358;2023-03-12T14:58:43;1.27;;;0.60;;
64966;SDS011;51710;38.732;-121.358;2023-03-12T15:01:12;1.10;;;0.57;;
64966;SDS011;51710;38.732;-121.358;2023-03-12T15:03:57;1.63;;;0.55;;
64966;SDS011;51710;38.732;-121.358;2023-03-12T15:09:02;3.15;;;0.70;;
64966;SDS011;51710;38.732;-121.358;2023-03-12T15:11:32;2.38;;;0.50;;
64966;SDS011;51710;38.732;-121.358;2023-03-12T15:14:01;2.10;;;0.50;;
64966;SDS011;51710;38.732;-121.358;2023-03-12T15:16:33;1.27;;;0.60;;
64966;SDS011;51710;38.732;-121.358;2023-03-12T15:19:00;2.72;;;0.52;;
64966;SDS011;51710;38.732;-121.358;2023-03-12T15:21:30;1.40;;;0.60;;
64966;SDS011;51710;38.732;-121.358;2023-03-12T15:23:59;3.22;;;0.60;;
64966;SDS011;51710;38.732;-121.358;2023-03-12T15:26:29;2.63;;;0.50;;
64966;SDS011;51710;38.732;-121.358;2023-03-12T15:29:00;4.15;;;0.68;;
64966;SDS011;51710;38.732;-121.358;2023-03-12T15:31:42;1.35;;;0.55;;
64966;SDS011;51710;38.732;-121.358;2023-03-12T15:34:26;1.92;;;0.70;;
64966;SDS011;51710;38.732;-121.358;2023-03-12T15:36:57;3.20;;;0.60;;
64966;SDS011;51710;38.732;-121.358;2023-03-12T15:41:55;2.28;;;0.60;;
64966;SDS011;51710;38.732;-121.358;2023-03-12T15:44:27;1.48;;;0.52;;
64966;SDS011;51710;38.732;-121.358;2023-03-12T15:47:04;1.70;;;0.60;;
64966;SDS011;51710;38.732;-121.358;2023-03-12T15:49:35;1.67;;;0.80;;
64966;SDS011;51710;38.732;-121.358;2023-03-12T15:52:54;2.42;;;0.70;;
64966;SDS011;51710;38.732;-121.358;2023-03-12T15:57:48;2.42;;;0.60;;
64966;SDS011;51710;38.732;-121.358;2023-03-12T16:00:18;2.58;;;0.60;;
64966;SDS011;51710;38.732;-121.358;2023-03-12T16:03:01;2.15;;;0.60;;
64966;SDS011;51710;38.732;-121.358;2023-03-12T16:05:35;2.95;;;0.60;;
64966;SDS011;51710;38.732;-121.358;2023-03-12T16:10:48;1.83;;;0.50;;
64966;SDS011;51710;38.732;-121.358;2023-03-12T16:13:15;2.95;;;0.57;;
64966;SDS011;51710;38.732;-121.358;2023-03-12T16:15:44;4.00;;;0.80;;
64966;SDS011;51710;38.732;-121.358;2023-03-12T16:18:18;1.95;;;0.57;;
64966;SDS011;51710;38.732;-121.358;2023-03-12T16:20:46;1.33;;;0.50;;
64966;SDS011;51710;38.732;-121.358;2023-03-12T16:23:13;1.77;;;0.50;;
64966;SDS011;51710;38.732;-121.358;2023-03-12T16:25:44;2.63;;;0.80;;
64966;SDS011;51710;38.732;-121.358;2023-03-12T16:28:21;2.40;;;0.80;;
64966;SDS011;51710;38.732;-121.358;2023-03-12T16:30:49;2.38;;;0.85;;
64966;SDS011;51710;38.732;-121.358;2023-03-12T16:33:17;3.00;;;1.00;;
64966;SDS011;51710;38.732;-121.358;2023-03-12T16:35:45;1.50;;;0.90;;
64966;SDS011;51710;38.732;-121.358;2023-03-12T16:38:12;2.60;;;0.60;;
64966;SDS011;51710;38.732;-121.358;2023-03-12T16:40:39;3.67;;;0.80;;
64966;SDS011;51710;38.732;-121.358;2023-03-12T16:43:22;3.90;;;2.42;;